createdAt,value
2018-08-18T00:02:06.444Z,2.47
2018-08-18T00:07:10.027Z,2.10
2018-08-18T00:12:18.877Z,2.20
2018-08-18T00:17:22.357Z,2.80
2018-08-18T00:22:25.841Z,2.15
2018-08-18T00:27:29.465Z,2.25
2018-08-18T00:32:33.064Z,2.55
2018-08-18T00:37:36.896Z,2.08
2018-08-18T00:42:41.023Z,2.42
2018-08-18T00:47:44.577Z,1.90
2018-08-18T00:52:48.085Z,2.30
2018-08-18T00:57:51.584Z,2.22
2018-08-18T01:02:55.129Z,2.15
2018-08-18T01:07:58.699Z,1.80
2018-08-18T01:13:02.324Z,2.60
2018-08-18T01:18:06.078Z,2.70
2018-08-18T01:23:09.629Z,2.55
2018-08-18T01:28:13.178Z,2.35
2018-08-18T01:33:16.890Z,2.45
2018-08-18T01:38:20.366Z,2.50
2018-08-18T01:43:23.813Z,2.15
2018-08-18T01:48:27.331Z,2.42
2018-08-18T01:53:30.952Z,2.00
2018-08-18T01:58:34.492Z,2.02
2018-08-18T02:03:38.145Z,2.62
2018-08-18T02:08:56.045Z,2.40
2018-08-18T02:13:59.585Z,2.47
2018-08-18T02:19:03.029Z,2.15
2018-08-18T02:24:07.084Z,2.33
2018-08-18T02:29:10.730Z,2.72
2018-08-18T02:34:14.250Z,2.22
2018-08-18T02:39:17.906Z,2.70
2018-08-18T02:44:21.378Z,2.50
2018-08-18T02:49:26.381Z,2.35
2018-08-18T02:54:34.038Z,2.10
2018-08-18T02:59:37.842Z,2.30
2018-08-18T03:04:46.759Z,2.65
2018-08-18T03:09:50.511Z,2.40
2018-08-18T03:14:54.127Z,2.27
2018-08-18T03:19:57.611Z,2.47
2018-08-18T03:25:01.270Z,2.33
2018-08-18T03:30:05.899Z,2.30
2018-08-18T03:35:10.008Z,2.40
2018-08-18T03:40:13.522Z,1.90
2018-08-18T03:45:17.638Z,2.20
2018-08-18T03:50:21.761Z,2.30
2018-08-18T03:55:39.300Z,2.62
2018-08-18T04:00:43.274Z,2.08
2018-08-18T04:05:47.571Z,2.05
2018-08-18T04:10:51.637Z,2.35
2018-08-18T04:15:55.122Z,2.17
2018-08-18T04:20:58.715Z,2.37
2018-08-18T04:26:02.961Z,2.72
2018-08-18T04:31:07.926Z,2.22
2018-08-18T04:36:11.572Z,2.05
2018-08-18T04:41:15.400Z,2.40
2018-08-18T04:46:19.315Z,2.80
2018-08-18T04:51:23.816Z,2.52
2018-08-18T04:56:27.801Z,2.45
2018-08-18T05:01:31.533Z,2.05
2018-08-18T05:06:36.305Z,2.27
2018-08-18T05:11:40.343Z,2.37
2018-08-18T05:16:43.960Z,2.37
2018-08-18T05:21:47.711Z,2.22
2018-08-18T05:26:52.353Z,2.25
2018-08-18T05:31:56.108Z,2.47
2018-08-18T05:37:00.594Z,2.33
2018-08-18T05:42:04.715Z,2.25
2018-08-18T05:47:09.065Z,2.40
2018-08-18T05:52:13.249Z,2.10
2018-08-18T05:57:17.041Z,2.30
2018-08-18T06:02:21.345Z,2.58
2018-08-18T06:07:26.312Z,2.12
2018-08-18T06:12:30.277Z,2.22
2018-08-18T06:17:34.158Z,2.30
2018-08-18T06:22:38.344Z,2.17
2018-08-18T06:27:44.037Z,1.87
2018-08-18T06:32:47.570Z,1.98
2018-08-18T06:37:56.394Z,1.87
2018-08-18T06:42:59.928Z,2.30
2018-08-18T06:48:19.761Z,2.80
2018-08-18T06:53:23.544Z,1.87
2018-08-18T06:58:27.294Z,2.27
2018-08-18T07:03:35.348Z,2.47
2018-08-18T07:08:44.223Z,2.83
2018-08-18T07:13:48.154Z,2.72
2018-08-18T07:18:51.681Z,2.50
2018-08-18T07:23:55.590Z,2.42
2018-08-18T07:28:59.964Z,2.27
2018-08-18T07:34:03.524Z,2.60
2018-08-18T07:39:08.679Z,2.52
2018-08-18T07:44:12.365Z,2.83
2018-08-18T07:49:15.942Z,2.33
2018-08-18T07:54:19.353Z,2.58
2018-08-18T07:59:22.885Z,2.30
2018-08-18T08:04:28.327Z,2.30
2018-08-18T08:09:31.913Z,2.02
2018-08-18T08:14:35.559Z,2.40
2018-08-18T08:19:38.993Z,2.27
2018-08-18T08:24:43.265Z,2.20
2018-08-18T08:29:48.028Z,2.33
2018-08-18T08:34:51.773Z,1.80
2018-08-18T08:39:55.635Z,2.20
2018-08-18T08:44:59.720Z,1.90
2018-08-18T08:50:03.704Z,1.60
2018-08-18T08:55:07.922Z,2.10
2018-08-18T09:00:12.018Z,2.13
2018-08-18T09:05:15.513Z,1.83
2018-08-18T09:10:19.138Z,1.80
2018-08-18T09:15:22.841Z,2.00
2018-08-18T09:20:27.596Z,1.80
2018-08-18T09:25:32.559Z,1.87
2018-08-18T09:30:36.122Z,2.08
2018-08-18T09:35:54.571Z,1.67
2018-08-18T09:40:58.364Z,2.80
2018-08-18T09:46:01.995Z,1.90
2018-08-18T09:51:05.564Z,1.52
2018-08-18T09:56:09.317Z,1.70
2018-08-18T10:01:12.798Z,1.82
2018-08-18T10:06:16.690Z,1.90
2018-08-18T10:11:20.181Z,2.30
2018-08-18T10:16:24.477Z,1.82
2018-08-18T10:21:28.084Z,1.77
2018-08-18T10:26:31.769Z,2.87
2018-08-18T10:31:36.772Z,17.12
2018-08-18T10:36:40.198Z,10.32
2018-08-18T10:41:55.559Z,7.05
2018-08-18T10:47:10.490Z,5.15
2018-08-18T10:52:25.984Z,3.77
2018-08-18T10:57:41.157Z,3.60
2018-08-18T11:02:46.440Z,3.12
2018-08-18T11:07:56.476Z,2.72
2018-08-18T11:13:00.145Z,2.25
2018-08-18T11:18:03.736Z,2.95
2018-08-18T11:23:10.714Z,2.08
2018-08-18T11:28:15.248Z,2.40
2018-08-18T11:33:35.774Z,2.70
2018-08-18T11:38:39.355Z,2.12
2018-08-18T11:43:50.208Z,2.30
2018-08-18T11:48:53.691Z,2.30
2018-08-18T11:54:01.635Z,2.20
2018-08-18T11:59:14.758Z,2.20
2018-08-18T12:04:20.358Z,2.10
2018-08-18T12:09:24.832Z,1.82
2018-08-18T12:14:28.287Z,2.20
2018-08-18T12:19:32.085Z,2.20
2018-08-18T12:24:35.603Z,2.10
2018-08-18T12:29:39.262Z,2.00
2018-08-18T12:34:42.827Z,2.25
2018-08-18T12:39:46.358Z,1.90
2018-08-18T12:44:51.088Z,1.98
2018-08-18T12:49:55.035Z,2.30
2018-08-18T12:54:58.481Z,2.08
2018-08-18T13:00:01.893Z,2.30
2018-08-18T13:05:05.446Z,2.02
2018-08-18T13:10:23.150Z,1.85
2018-08-18T13:15:26.629Z,1.85
2018-08-18T13:20:30.221Z,2.08
2018-08-18T13:25:33.735Z,2.30
2018-08-18T13:30:37.197Z,2.15
2018-08-18T13:35:40.889Z,2.42
2018-08-18T13:40:44.444Z,1.90
2018-08-18T13:45:47.968Z,1.92
2018-08-18T13:50:51.549Z,2.37
2018-08-18T14:00:58.613Z,1.90
2018-08-18T14:06:02.271Z,2.12
2018-08-18T14:11:05.836Z,2.05
2018-08-18T14:16:09.577Z,2.22
2018-08-18T14:21:13.101Z,1.57
2018-08-18T14:26:16.629Z,1.80
2018-08-18T14:31:20.198Z,2.20
2018-08-18T14:36:24.071Z,1.47
2018-08-18T14:41:44.295Z,1.98
2018-08-18T14:46:48.022Z,1.95
2018-08-18T14:51:51.852Z,1.80
2018-08-18T14:56:55.442Z,1.95
2018-08-18T15:01:59.292Z,1.77
2018-08-18T15:07:03.369Z,1.85
2018-08-18T15:12:07.649Z,2.30
2018-08-18T15:17:11.109Z,2.83
2018-08-18T15:22:14.681Z,1.90
2018-08-18T15:27:18.677Z,2.10
2018-08-18T15:32:22.215Z,2.00
2018-08-18T15:37:25.698Z,2.17
2018-08-18T15:42:29.112Z,2.25
2018-08-18T15:47:32.768Z,1.85
2018-08-18T15:52:36.444Z,1.80
2018-08-18T15:57:39.891Z,1.50
2018-08-18T16:02:43.321Z,1.90
2018-08-18T16:07:46.765Z,2.00
2018-08-18T16:12:50.979Z,2.33
2018-08-18T16:17:54.877Z,1.77
2018-08-18T16:22:59.475Z,2.60
2018-08-18T16:28:03.579Z,2.12
2018-08-18T16:33:13.846Z,2.27
2018-08-18T16:38:17.412Z,1.82
2018-08-18T16:43:26.799Z,1.77
2018-08-18T16:48:31.145Z,2.20
2018-08-18T16:53:34.977Z,2.12
2018-08-18T16:58:39.493Z,1.90
2018-08-18T17:03:43.134Z,1.67
2018-08-18T17:08:47.177Z,1.98
2018-08-18T17:13:50.673Z,1.98
2018-08-18T17:18:54.113Z,2.10
2018-08-18T17:23:57.757Z,2.05
2018-08-18T17:29:01.200Z,2.30
2018-08-18T17:34:04.817Z,2.25
2018-08-18T17:39:08.314Z,2.55
2018-08-18T17:44:11.833Z,2.30
2018-08-18T17:49:15.308Z,2.30
2018-08-18T17:54:18.742Z,1.98
2018-08-18T17:59:22.764Z,2.25
2018-08-18T18:04:27.943Z,2.37
2018-08-18T18:09:33.033Z,2.12
2018-08-18T18:14:36.830Z,2.30
2018-08-18T18:19:40.285Z,1.80
2018-08-18T18:24:44.454Z,2.00
2018-08-18T18:29:48.071Z,2.22
2018-08-18T18:34:51.584Z,2.37
2018-08-18T18:40:02.654Z,2.27
2018-08-18T18:45:08.377Z,2.20
2018-08-18T18:50:14.229Z,2.00
2018-08-18T18:55:18.235Z,2.07
2018-08-18T19:00:21.712Z,2.83
2018-08-18T19:05:26.212Z,2.40
2018-08-18T19:10:30.150Z,2.90
2018-08-18T19:15:33.694Z,2.95
2018-08-18T19:20:37.277Z,2.75
2018-08-18T19:25:42.153Z,2.65
2018-08-18T19:30:45.794Z,3.30
2018-08-18T19:35:51.037Z,2.87
2018-08-18T19:40:55.864Z,2.98
2018-08-18T19:45:59.538Z,3.00
2018-08-18T19:51:03.076Z,2.90
2018-08-18T19:56:10.870Z,2.70
2018-08-18T20:01:14.417Z,2.90
2018-08-18T20:06:20.980Z,2.90
2018-08-18T20:11:24.805Z,3.25
2018-08-18T20:16:28.329Z,3.27
2018-08-18T20:21:32.021Z,2.77
2018-08-18T20:26:35.632Z,3.75
2018-08-18T20:31:43.355Z,3.58
2018-08-18T20:36:46.887Z,3.58
2018-08-18T20:41:50.621Z,3.65
2018-08-18T20:46:54.333Z,3.75
2018-08-18T20:51:59.341Z,4.05
2018-08-18T20:57:04.451Z,4.10
2018-08-18T21:02:08.689Z,4.05
2018-08-18T21:07:12.439Z,3.77
2018-08-18T21:12:16.119Z,3.72
2018-08-18T21:17:19.773Z,3.77
2018-08-18T21:22:27.772Z,4.55
2018-08-18T21:27:31.202Z,3.87
2018-08-18T21:32:35.033Z,4.22
2018-08-18T21:37:38.896Z,4.30
2018-08-18T21:42:42.673Z,4.25
2018-08-18T21:47:46.225Z,3.67
2018-08-18T21:52:49.892Z,3.85
2018-08-18T21:57:56.420Z,4.35
2018-08-18T22:02:59.977Z,4.22
2018-08-18T22:08:03.473Z,3.80
2018-08-18T22:13:07.329Z,3.80
2018-08-18T22:18:10.825Z,4.25
2018-08-18T22:23:14.339Z,4.03
2018-08-18T22:28:18.728Z,4.12
2018-08-18T22:33:23.094Z,4.40
2018-08-18T22:38:26.668Z,4.05
2018-08-18T22:43:35.117Z,4.60
2018-08-18T22:48:38.858Z,4.10
2018-08-18T22:53:46.169Z,4.10
2018-08-18T22:58:56.379Z,4.70
2018-08-18T23:04:00.081Z,4.80
2018-08-18T23:09:04.039Z,4.22
2018-08-18T23:14:07.596Z,4.30
2018-08-18T23:19:11.121Z,4.33
2018-08-18T23:24:27.659Z,4.55
2018-08-18T23:29:31.356Z,4.65
2018-08-18T23:34:34.974Z,4.28
2018-08-18T23:39:38.761Z,4.30
2018-08-18T23:44:42.405Z,4.13
2018-08-18T23:49:46.363Z,3.65
2018-08-18T23:54:49.869Z,4.05
2018-08-18T23:59:53.517Z,4.05
